Time,TemperatureF,DewpointF,PressureIn,WindDirection,WindDirectionDegrees,WindSpeedMPH,WindSpeedGustMPH,Humidity,HourlyPrecipIn,Conditions,Clouds,dailyrainin,SoftwareType,DateUTC
2013-10-05 00:01:00,67.2,65.4,30.07,South,178,0.0,4.0,94,0.00,,,0.00,WUHU216DAVISVP2,2013-10-05 04:01:00,
2013-10-05 00:02:00,67.2,65.4,30.07,South,178,0.0,4.0,94,0.00,,,0.00,WUHU216DAVISVP2,2013-10-05 04:02:00,
2013-10-05 00:07:00,67.1,65.3,30.07,South,178,0.0,4.0,94,0.00,,,0.00,WUHU216DAVISVP2,2013-10-05 04:07:00,
2013-10-05 00:12:00,66.9,65.1,30.07,South,178,0.0,2.0,94,0.00,,,0.00,WUHU216DAVISVP2,2013-10-05 04:12:00,
2013-10-05 00:17:00,66.7,64.9,30.06,South,178,0.0,2.0,94,0.00,,,0.00,WUHU216DAVISVP2,2013-10-05 04:17:00,
2013-10-05 00:22:00,66.6,64.8,30.07,South,178,0.0,2.0,94,0.00,,,0.00,WUHU216DAVISVP2,2013-10-05 04:22:00,
2013-10-05 00:27:00,66.4,64.9,30.07,South,178,0.0,2.0,95,0.00,,,0.00,WUHU216DAVISVP2,2013-10-05 04:27:00,
2013-10-05 00:32:00,66.4,64.9,30.07,South,177,0.0,4.0,95,0.00,,,0.00,WUHU216DAVISVP2,2013-10-05 04:32:00,
2013-10-05 00:37:00,66.4,64.9,30.07,WSW,250,0.0,4.0,95,0.00,,,0.00,WUHU216DAVISVP2,2013-10-05 04:37:00,
2013-10-05 00:42:00,66.3,64.8,30.07,WSW,250,0.0,4.0,95,0.00,,,0.00,WUHU216DAVISVP2,2013-10-05 04:42:00,
2013-10-05 00:47:00,66.2,64.7,30.07,SSW,198,0.0,2.0,95,0.00,,,0.00,WUHU216DAVISVP2,2013-10-05 04:47:00,
2013-10-05 00:52:00,66.1,64.6,30.07,SSW,198,0.0,2.0,95,0.00,,,0.00,WUHU216DAVISVP2,2013-10-05 04:52:00,
2013-10-05 00:57:00,66.0,64.5,30.07,SSW,198,0.0,0.0,95,0.00,,,0.00,WUHU216DAVISVP2,2013-10-05 04:57:00,
2013-10-05 01:05:00,65.8,64.3,30.07,SSW,198,0.0,2.0,95,0.00,,,0.00,WUHU216DAVISVP2,2013-10-05 05:05:00,
2013-10-05 01:10:00,65.8,64.6,30.07,SSW,198,0.0,2.0,96,0.00,,,0.00,WUHU216DAVISVP2,2013-10-05 05:10:00,
2013-10-05 01:15:00,65.7,64.5,30.07,SSW,198,0.0,2.0,96,0.00,,,0.00,WUHU216DAVISVP2,2013-10-05 05:15:00,
2013-10-05 01:20:00,65.7,64.5,30.07,South,186,0.0,6.0,96,0.00,,,0.00,WUHU216DAVISVP2,2013-10-05 05:20:00,
2013-10-05 01:25:00,65.7,64.5,30.07,South,186,0.0,6.0,96,0.00,,,0.00,WUHU216DAVISVP2,2013-10-05 05:25:00,
2013-10-05 01:30:00,65.7,64.5,30.07,South,188,2.0,6.0,96,0.00,,,0.00,WUHU216DAVISVP2,2013-10-05 05:30:00,
2013-10-05 01:35:00,65.7,64.5,30.07,South,189,0.0,6.0,96,0.00,,,0.00,WUHU216DAVISVP2,2013-10-05 05:35:00,
2013-10-05 01:40:00,65.8,64.6,30.07,South,181,0.0,6.0,96,0.00,,,0.00,WUHU216DAVISVP2,2013-10-05 05:40:00,
2013-10-05 01:45:00,65.8,64.6,30.07,South,182,0.0,6.0,96,0.00,,,0.00,WUHU216DAVISVP2,2013-10-05 05:45:00,
2013-10-05 01:50:00,65.7,64.5,30.07,South,182,0.0,2.0,96,0.00,,,0.00,WUHU216DAVISVP2,2013-10-05 05:50:00,
2013-10-05 01:55:00,65.7,64.5,30.07,South,179,0.0,4.0,96,0.00,,,0.00,WUHU216DAVISVP2,2013-10-05 05:55:00,
2013-10-05 02:00:00,65.8,64.9,30.07,SSW,200,0.0,6.0,97,0.00,,,0.00,WUHU216DAVISVP2,2013-10-05 06:00:00,
2013-10-05 02:05:00,66.0,65.1,30.07,SSW,199,0.0,8.0,97,0.00,,,0.00,WUHU216DAVISVP2,2013-10-05 06:05:00,
2013-10-05 02:10:00,66.1,65.2,30.07,South,188,0.0,8.0,97,0.00,,,0.00,WUHU216DAVISVP2,2013-10-05 06:10:00,
2013-10-05 02:15:00,66.2,65.3,30.07,South,171,0.0,6.0,97,0.00,,,0.00,WUHU216DAVISVP2,2013-10-05 06:15:00,
2013-10-05 02:20:00,66.2,65.3,30.07,South,172,0.0,6.0,97,0.00,,,0.00,WUHU216DAVISVP2,2013-10-05 06:20:00,
2013-10-05 02:25:00,66.1,64.9,30.07,South,172,2.0,4.0,96,0.00,,,0.00,WUHU216DAVISVP2,2013-10-05 06:25:00,
2013-10-05 02:30:00,66.1,65.2,30.07,South,173,0.0,8.0,97,0.00,,,0.00,WUHU216DAVISVP2,2013-10-05 06:30:00,
2013-10-05 02:35:00,66.2,65.3,30.07,SSE,167,0.0,8.0,97,0.00,,,0.00,WUHU216DAVISVP2,2013-10-05 06:35:00,
2013-10-05 02:40:00,66.2,65.3,30.07,SSE,159,0.0,6.0,97,0.00,,,0.00,WUHU216DAVISVP2,2013-10-05 06:40:00,
2013-10-05 02:45:00,66.2,65.3,30.07,SSW,205,6.0,8.0,97,0.00,,,0.00,WUHU216DAVISVP2,2013-10-05 06:45:00,
2013-10-05 02:50:00,66.2,65.3,30.07,South,189,2.0,8.0,97,0.00,,,0.00,WUHU216DAVISVP2,2013-10-05 06:50:00,
2013-10-05 02:55:00,66.2,65.3,30.06,South,172,2.0,6.0,97,0.00,,,0.00,WUHU216DAVISVP2,2013-10-05 06:55:00,
2013-10-05 03:00:00,66.2,65.3,30.06,South,184,0.0,8.0,97,0.00,,,0.00,WUHU216DAVISVP2,2013-10-05 07:00:00,
2013-10-05 03:05:00,66.2,65.3,30.06,SSW,202,0.0,8.0,97,0.00,,,0.00,WUHU216DAVISVP2,2013-10-05 07:05:00,
2013-10-05 03:10:00,66.3,65.4,30.06,SSE,158,0.0,8.0,97,0.00,,,0.00,WUHU216DAVISVP2,2013-10-05 07:10:00,
2013-10-05 03:15:00,66.3,65.4,30.06,WSW,238,2.0,8.0,97,0.00,,,0.00,WUHU216DAVISVP2,2013-10-05 07:15:00,
2013-10-05 03:20:00,66.2,65.3,30.06,South,181,0.0,4.0,97,0.00,,,0.00,WUHU216DAVISVP2,2013-10-05 07:20:00,
2013-10-05 03:25:00,66.1,64.9,30.06,SSW,200,0.0,4.0,96,0.00,,,0.00,WUHU216DAVISVP2,2013-10-05 07:25:00,
2013-10-05 03:30:00,66.1,65.2,30.06,SW,215,0.0,8.0,97,0.00,,,0.00,WUHU216DAVISVP2,2013-10-05 07:30:00,
2013-10-05 03:35:00,66.1,64.9,30.06,SW,215,0.0,8.0,96,0.00,,,0.00,WUHU216DAVISVP2,2013-10-05 07:35:00,
2013-10-05 03:40:00,66.1,65.2,30.06,SW,215,0.0,2.0,97,0.00,,,0.00,WUHU216DAVISVP2,2013-10-05 07:40:00,
2013-10-05 03:45:00,66.0,65.1,30.05,SW,215,0.0,2.0,97,0.00,,,0.00,WUHU216DAVISVP2,2013-10-05 07:45:00,
2013-10-05 03:50:00,66.0,65.1,30.06,SW,215,0.0,0.0,97,0.00,,,0.00,WUHU216DAVISVP2,2013-10-05 07:50:00,
2013-10-05 03:55:00,65.9,65.0,30.06,South,191,0.0,4.0,97,0.00,,,0.00,WUHU216DAVISVP2,2013-10-05 07:55:00,
2013-10-05 04:00:00,66.0,65.1,30.06,South,191,0.0,4.0,97,0.00,,,0.00,WUHU216DAVISVP2,2013-10-05 08:00:00,
2013-10-05 04:05:00,66.1,65.2,30.06,South,190,2.0,2.0,97,0.00,,,0.00,WUHU216DAVISVP2,2013-10-05 08:05:00,
2013-10-05 04:10:00,66.1,65.2,30.06,South,190,0.0,2.0,97,0.00,,,0.00,WUHU216DAVISVP2,2013-10-05 08:10:00,
2013-10-05 04:15:00,66.1,65.2,30.06,South,189,0.0,2.0,97,0.00,,,0.00,WUHU216DAVISVP2,2013-10-05 08:15:00,
2013-10-05 04:20:00,66.1,65.2,30.06,South,189,0.0,2.0,97,0.00,,,0.00,WUHU216DAVISVP2,2013-10-05 08:20:00,
2013-10-05 04:25:00,66.1,65.2,30.06,South,189,0.0,2.0,97,0.00,,,0.00,WUHU216DAVISVP2,2013-10-05 08:25:00,
2013-10-05 04:30:00,66.1,65.2,30.06,South,189,0.0,2.0,97,0.00,,,0.00,WUHU216DAVISVP2,2013-10-05 08:30:00,
2013-10-05 04:35:00,66.1,65.2,30.06,South,189,2.0,4.0,97,0.00,,,0.00,WUHU216DAVISVP2,2013-10-05 08:35:00,
2013-10-05 04:40:00,66.1,65.2,30.06,South,189,0.0,4.0,97,0.00,,,0.00,WUHU216DAVISVP2,2013-10-05 08:40:00,
2013-10-05 04:45:00,66.1,65.2,30.06,South,189,0.0,2.0,97,0.00,,,0.00,WUHU216DAVISVP2,2013-10-05 08:45:00,
2013-10-05 04:50:00,66.1,65.2,30.06,SSW,195,0.0,2.0,97,0.00,,,0.00,WUHU216DAVISVP2,2013-10-05 08:50:00,
2013-10-05 04:55:00,66.1,65.2,30.06,SSW,195,0.0,2.0,97,0.00,,,0.00,WUHU216DAVISVP2,2013-10-05 08:55:00,
2013-10-05 05:00:00,66.1,65.2,30.06,SSW,195,0.0,2.0,97,0.00,,,0.00,WUHU216DAVISVP2,2013-10-05 09:00:00,
2013-10-05 05:05:00,66.1,65.2,30.06,SSW,194,0.0,4.0,97,0.00,,,0.00,WUHU216DAVISVP2,2013-10-05 09:05:00,
2013-10-05 05:10:00,66.0,65.1,30.06,SSW,194,0.0,4.0,97,0.00,,,0.00,WUHU216DAVISVP2,2013-10-05 09:10:00,
2013-10-05 05:15:00,66.0,65.1,30.06,SSW,194,0.0,4.0,97,0.00,,,0.00,WUHU216DAVISVP2,2013-10-05 09:15:00,
2013-10-05 05:20:00,66.0,65.1,30.06,SSW,194,0.0,2.0,97,0.00,,,0.00,WUHU216DAVISVP2,2013-10-05 09:20:00,
2013-10-05 05:25:00,65.9,65.0,30.06,SSW,194,0.0,2.0,97,0.00,,,0.00,WUHU216DAVISVP2,2013-10-05 09:25:00,
2013-10-05 05:30:00,65.9,65.0,30.06,SSW,195,0.0,2.0,97,0.00,,,0.00,WUHU216DAVISVP2,2013-10-05 09:30:00,
2013-10-05 05:35:00,65.9,65.0,30.07,SSW,194,0.0,2.0,97,0.00,,,0.00,WUHU216DAVISVP2,2013-10-05 09:35:00,
2013-10-05 05:40:00,65.9,65.0,30.07,SSW,195,4.0,4.0,97,0.00,,,0.00,WUHU216DAVISVP2,2013-10-05 09:40:00,
2013-10-05 05:45:00,65.9,65.0,30.07,SSW,195,0.0,4.0,97,0.00,,,0.00,WUHU216DAVISVP2,2013-10-05 09:45:00,
2013-10-05 05:50:00,65.9,65.0,30.07,SSW,195,0.0,2.0,97,0.00,,,0.00,WUHU216DAVISVP2,2013-10-05 09:50:00,
2013-10-05 05:55:00,65.9,65.0,30.07,South,190,0.0,6.0,97,0.00,,,0.00,WUHU216DAVISVP2,2013-10-05 09:55:00,
2013-10-05 06:00:00,65.9,65.0,30.07,South,190,0.0,6.0,97,0.00,,,0.00,WUHU216DAVISVP2,2013-10-05 10:00:00,
2013-10-05 06:05:00,65.9,65.0,30.07,South,190,0.0,2.0,97,0.00,,,0.00,WUHU216DAVISVP2,2013-10-05 10:05:00,
2013-10-05 06:10:00,65.8,64.9,30.07,South,190,0.0,2.0,97,0.00,,,0.00,WUHU216DAVISVP2,2013-10-05 10:10:00,
2013-10-05 06:15:00,65.9,65.0,30.07,South,190,0.0,2.0,97,0.00,,,0.00,WUHU216DAVISVP2,2013-10-05 10:15:00,
2013-10-05 06:20:00,65.9,65.0,30.07,South,190,0.0,2.0,97,0.00,,,0.00,WUHU216DAVISVP2,2013-10-05 10:20:00,
2013-10-05 06:25:00,66.0,65.4,30.07,WSW,245,0.0,4.0,98,0.00,,,0.00,WUHU216DAVISVP2,2013-10-05 10:25:00,
2013-10-05 06:30:00,66.0,65.1,30.07,SW,236,0.0,4.0,97,0.00,,,0.00,WUHU216DAVISVP2,2013-10-05 10:30:00,
2013-10-05 06:35:00,66.0,65.1,30.07,SW,236,0.0,4.0,97,0.00,,,0.00,WUHU216DAVISVP2,2013-10-05 10:35:00,
2013-10-05 06:40:00,66.1,65.2,30.07,SSW,203,2.0,6.0,97,0.00,,,0.00,WUHU216DAVISVP2,2013-10-05 10:40:00,
2013-10-05 06:45:00,66.1,65.2,30.06,SE,126,0.0,6.0,97,0.00,,,0.00,WUHU216DAVISVP2,2013-10-05 10:45:00,
2013-10-05 06:50:00,66.1,65.2,30.07,SE,126,0.0,2.0,97,0.00,,,0.00,WUHU216DAVISVP2,2013-10-05 10:50:00,
2013-10-05 06:55:00,66.1,65.2,30.07,SE,126,2.0,2.0,97,0.00,,,0.00,WUHU216DAVISVP2,2013-10-05 10:55:00,
2013-10-05 07:00:00,66.0,65.1,30.07,SE,126,0.0,2.0,97,0.00,,,0.00,WUHU216DAVISVP2,2013-10-05 11:00:00,
2013-10-05 07:05:00,65.9,65.0,30.06,SE,131,0.0,4.0,97,0.00,,,0.00,WUHU216DAVISVP2,2013-10-05 11:05:00,
2013-10-05 07:10:00,65.9,65.0,30.07,SSW,195,0.0,6.0,97,0.00,,,0.00,WUHU216DAVISVP2,2013-10-05 11:10:00,
2013-10-05 07:15:00,66.0,65.1,30.07,South,186,0.0,6.0,97,0.00,,,0.00,WUHU216DAVISVP2,2013-10-05 11:15:00,
2013-10-05 07:20:00,66.0,65.1,30.07,SSW,198,0.0,6.0,97,0.01,,,0.01,WUHU216DAVISVP2,2013-10-05 11:20:00,
2013-10-05 07:25:00,65.9,65.0,30.07,SSW,198,0.0,6.0,97,0.01,,,0.01,WUHU216DAVISVP2,2013-10-05 11:25:00,
2013-10-05 07:30:00,65.9,65.0,30.07,South,175,0.0,8.0,97,0.01,,,0.01,WUHU216DAVISVP2,2013-10-05 11:30:00,
2013-10-05 07:35:00,66.0,65.1,30.07,South,175,0.0,8.0,97,0.01,,,0.01,WUHU216DAVISVP2,2013-10-05 11:35:00,
2013-10-05 07:40:00,65.9,65.0,30.07,South,175,0.0,4.0,97,0.01,,,0.01,WUHU216DAVISVP2,2013-10-05 11:40:00,
2013-10-05 07:45:00,65.9,65.0,30.07,South,177,0.0,4.0,97,0.01,,,0.01,WUHU216DAVISVP2,2013-10-05 11:45:00,
2013-10-05 07:50:00,65.9,65.0,30.07,South,177,2.0,8.0,97,0.01,,,0.01,WUHU216DAVISVP2,2013-10-05 11:50:00,
2013-10-05 07:55:00,65.9,65.0,30.07,South,177,0.0,8.0,97,0.01,,,0.01,WUHU216DAVISVP2,2013-10-05 11:55:00,
2013-10-05 08:00:00,65.9,65.0,30.07,South,186,0.0,6.0,97,0.01,,,0.01,WUHU216DAVISVP2,2013-10-05 12:00:00,
2013-10-05 08:05:00,66.0,65.1,30.07,South,186,2.0,8.0,97,0.01,,,0.01,WUHU216DAVISVP2,2013-10-05 12:05:00,
2013-10-05 08:10:00,66.0,65.1,30.07,South,181,2.0,10.0,97,0.01,,,0.01,WUHU216DAVISVP2,2013-10-05 12:10:00,
2013-10-05 08:15:00,66.1,65.2,30.07,SSW,211,6.0,14.0,97,0.01,,,0.01,WUHU216DAVISVP2,2013-10-05 12:15:00,
2013-10-05 08:20:00,66.3,65.4,30.07,SSW,198,4.0,14.0,97,0.00,,,0.01,WUHU216DAVISVP2,2013-10-05 12:20:00,
2013-10-05 08:25:00,66.3,65.4,30.07,SE,140,0.0,8.0,97,0.00,,,0.01,WUHU216DAVISVP2,2013-10-05 12:25:00,
2013-10-05 08:30:00,66.4,65.5,30.07,SE,140,0.0,2.0,97,0.00,,,0.01,WUHU216DAVISVP2,2013-10-05 12:30:00,
2013-10-05 08:35:00,66.5,65.6,30.08,SE,140,0.0,2.0,97,0.00,,,0.01,WUHU216DAVISVP2,2013-10-05 12:35:00,
2013-10-05 08:40:00,66.7,65.8,30.07,SE,140,0.0,2.0,97,0.00,,,0.01,WUHU216DAVISVP2,2013-10-05 12:40:00,
2013-10-05 08:45:00,66.8,65.9,30.08,SE,143,0.0,2.0,97,0.00,,,0.01,WUHU216DAVISVP2,2013-10-05 12:45:00,
2013-10-05 08:50:00,67.0,65.8,30.07,SE,143,0.0,2.0,96,0.00,,,0.01,WUHU216DAVISVP2,2013-10-05 12:50:00,
2013-10-05 08:55:00,67.1,65.9,30.07,SE,143,2.0,2.0,96,0.00,,,0.01,WUHU216DAVISVP2,2013-10-05 12:55:00,
2013-10-05 09:00:00,67.1,65.9,30.07,SSE,164,0.0,8.0,96,0.00,,,0.01,WUHU216DAVISVP2,2013-10-05 13:00:00,
2013-10-05 09:05:00,67.2,65.7,30.07,SSE,164,2.0,8.0,95,0.00,,,0.01,WUHU216DAVISVP2,2013-10-05 13:05:00,
2013-10-05 09:10:00,67.2,65.7,30.07,South,182,0.0,6.0,95,0.00,,,0.01,WUHU216DAVISVP2,2013-10-05 13:10:00,
2013-10-05 09:15:00,67.3,65.8,30.07,SSW,193,0.0,12.0,95,0.00,,,0.01,WUHU216DAVISVP2,2013-10-05 13:15:00,
2013-10-05 09:20:00,67.6,66.1,30.07,SSW,202,0.0,12.0,95,0.00,,,0.01,WUHU216DAVISVP2,2013-10-05 13:20:00,
2013-10-05 09:25:00,68.0,66.5,30.07,SW,236,0.0,10.0,95,0.00,,,0.01,WUHU216DAVISVP2,2013-10-05 13:25:00,
2013-10-05 09:30:00,68.5,66.7,30.07,SSE,159,0.0,10.0,94,0.00,,,0.01,WUHU216DAVISVP2,2013-10-05 13:30:00,
2013-10-05 09:35:00,69.0,66.9,30.07,West,276,0.0,8.0,93,0.00,,,0.01,WUHU216DAVISVP2,2013-10-05 13:35:00,
2013-10-05 09:40:00,69.5,67.0,30.07,South,191,0.0,8.0,92,0.00,,,0.01,WUHU216DAVISVP2,2013-10-05 13:40:00,
2013-10-05 09:45:00,69.9,67.1,30.07,WSW,238,0.0,10.0,91,0.00,,,0.01,WUHU216DAVISVP2,2013-10-05 13:45:00,
2013-10-05 09:50:00,70.4,67.3,30.07,South,176,2.0,12.0,90,0.00,,,0.01,WUHU216DAVISVP2,2013-10-05 13:50:00,
2013-10-05 09:55:00,70.9,67.5,30.07,SE,137,2.0,12.0,89,0.00,,,0.01,WUHU216DAVISVP2,2013-10-05 13:55:00,
2013-10-05 10:00:00,71.3,67.9,30.07,WNW,283,0.0,10.0,89,0.00,,,0.01,WUHU216DAVISVP2,2013-10-05 14:00:00,
2013-10-05 10:06:00,71.7,68.0,30.07,West,263,0.0,10.0,88,0.00,,,0.01,WUHU216DAVISVP2,2013-10-05 14:06:00,
2013-10-05 10:11:00,72.0,67.9,30.06,South,188,0.0,8.0,87,0.00,,,0.01,WUHU216DAVISVP2,2013-10-05 14:11:00,
2013-10-05 10:16:00,72.3,67.6,30.06,ESE,122,6.0,10.0,85,0.00,,,0.01,WUHU216DAVISVP2,2013-10-05 14:16:00,
2013-10-05 10:21:00,72.7,67.6,30.06,SSW,194,0.0,10.0,84,0.00,,,0.01,WUHU216DAVISVP2,2013-10-05 14:21:00,
2013-10-05 10:26:00,73.1,68.0,30.06,SW,215,0.0,6.0,84,0.00,,,0.01,WUHU216DAVISVP2,2013-10-05 14:26:00,
2013-10-05 10:30:00,73.6,67.8,30.06,SW,227,4.0,8.0,82,0.00,,,0.01,WUHU216DAVISVP2,2013-10-05 14:30:00,
2013-10-05 10:35:00,73.9,68.1,30.06,SW,225,0.0,8.0,82,0.00,,,0.01,WUHU216DAVISVP2,2013-10-05 14:35:00,
2013-10-05 10:40:00,74.2,68.1,30.06,WSW,252,0.0,6.0,81,0.00,,,0.01,WUHU216DAVISVP2,2013-10-05 14:40:00,
2013-10-05 10:45:00,74.2,67.4,30.06,SW,219,0.0,6.0,79,0.00,,,0.01,WUHU216DAVISVP2,2013-10-05 14:45:00,
2013-10-05 10:50:00,74.5,68.0,30.06,SSE,161,0.0,6.0,80,0.00,,,0.01,WUHU216DAVISVP2,2013-10-05 14:50:00,
2013-10-05 10:55:00,74.6,68.1,30.06,SSE,161,0.0,6.0,80,0.00,,,0.01,WUHU216DAVISVP2,2013-10-05 14:55:00,
2013-10-05 11:00:00,74.8,68.3,30.06,SSE,161,0.0,4.0,80,0.00,,,0.01,WUHU216DAVISVP2,2013-10-05 15:00:00,
2013-10-05 11:06:00,74.8,68.0,30.06,SSE,161,0.0,2.0,79,0.00,,,0.01,WUHU216DAVISVP2,2013-10-05 15:06:00,
2013-10-05 11:11:00,74.9,67.7,30.06,SSE,157,0.0,4.0,78,0.00,,,0.01,WUHU216DAVISVP2,2013-10-05 15:11:00,
2013-10-05 11:16:00,75.3,67.7,30.05,SW,223,0.0,4.0,77,0.00,,,0.01,WUHU216DAVISVP2,2013-10-05 15:16:00,
2013-10-05 11:21:00,75.8,67.8,30.05,SSW,211,0.0,4.0,76,0.00,,,0.01,WUHU216DAVISVP2,2013-10-05 15:21:00,
2013-10-05 11:26:00,76.5,68.1,30.05,SSE,167,0.0,4.0,75,0.00,,,0.01,WUHU216DAVISVP2,2013-10-05 15:26:00,
2013-10-05 11:31:00,76.8,68.1,30.05,WSW,250,2.0,8.0,74,0.00,,,0.01,WUHU216DAVISVP2,2013-10-05 15:31:00,
2013-10-05 11:36:00,76.6,68.2,30.05,SSW,203,4.0,8.0,75,0.00,,,0.01,WUHU216DAVISVP2,2013-10-05 15:36:00,
2013-10-05 11:41:00,76.8,68.4,30.05,South,182,0.0,6.0,75,0.00,,,0.01,WUHU216DAVISVP2,2013-10-05 15:41:00,
2013-10-05 11:46:00,77.1,68.7,30.05,NNW,329,2.0,8.0,75,0.00,,,0.01,WUHU216DAVISVP2,2013-10-05 15:46:00,
2013-10-05 11:50:00,77.1,68.3,30.05,West,266,4.0,8.0,74,0.00,,,0.01,WUHU216DAVISVP2,2013-10-05 15:50:00,
2013-10-05 11:56:00,77.1,69.1,30.05,West,267,0.0,6.0,76,0.00,,,0.01,WUHU216DAVISVP2,2013-10-05 15:56:00,
2013-10-05 12:01:00,77.1,69.1,30.05,SW,232,2.0,8.0,76,0.00,,,0.01,WUHU216DAVISVP2,2013-10-05 16:01:00,
2013-10-05 12:06:00,77.3,68.9,30.05,West,261,0.0,8.0,75,0.00,,,0.01,WUHU216DAVISVP2,2013-10-05 16:06:00,
2013-10-05 12:11:00,77.7,69.7,30.05,South,169,4.0,8.0,76,0.00,,,0.01,WUHU216DAVISVP2,2013-10-05 16:11:00,
2013-10-05 12:16:00,78.1,68.9,30.05,SSE,158,4.0,8.0,73,0.00,,,0.01,WUHU216DAVISVP2,2013-10-05 16:16:00,
2013-10-05 12:21:00,78.4,69.6,30.05,WNW,302,0.0,10.0,74,0.00,,,0.01,WUHU216DAVISVP2,2013-10-05 16:21:00,
2013-10-05 12:26:00,78.5,69.3,30.05,West,270,4.0,10.0,73,0.00,,,0.01,WUHU216DAVISVP2,2013-10-05 16:26:00,
2013-10-05 12:31:00,78.2,69.0,30.05,SSW,212,4.0,8.0,73,0.00,,,0.01,WUHU216DAVISVP2,2013-10-05 16:31:00,
2013-10-05 12:36:00,77.9,69.5,30.05,SSW,205,0.0,8.0,75,0.00,,,0.01,WUHU216DAVISVP2,2013-10-05 16:36:00,
2013-10-05 12:41:00,78.0,69.2,30.05,SW,222,4.0,8.0,74,0.00,,,0.01,WUHU216DAVISVP2,2013-10-05 16:41:00,
2013-10-05 12:46:00,78.3,69.9,30.05,WSW,243,2.0,10.0,75,0.00,,,0.01,WUHU216DAVISVP2,2013-10-05 16:46:00,
2013-10-05 12:51:00,78.0,69.2,30.05,WSW,258,4.0,14.0,74,0.00,,,0.01,WUHU216DAVISVP2,2013-10-05 16:51:00,
2013-10-05 12:56:00,77.7,69.3,30.05,West,271,8.0,14.0,75,0.00,,,0.01,WUHU216DAVISVP2,2013-10-05 16:56:00,
2013-10-05 13:01:00,77.2,68.8,30.06,WNW,284,0.0,10.0,75,0.00,,,0.01,WUHU216DAVISVP2,2013-10-05 17:01:00,
2013-10-05 13:06:00,76.8,68.8,30.06,South,187,0.0,8.0,76,0.00,,,0.01,WUHU216DAVISVP2,2013-10-05 17:06:00,
2013-10-05 13:11:00,76.5,69.3,30.06,WSW,237,2.0,10.0,78,0.00,,,0.01,WUHU216DAVISVP2,2013-10-05 17:11:00,
2013-10-05 13:16:00,75.8,68.6,30.06,South,169,4.0,12.0,78,0.00,,,0.01,WUHU216DAVISVP2,2013-10-05 17:16:00,
2013-10-05 13:21:00,75.4,68.5,30.06,South,175,2.0,12.0,79,0.00,,,0.01,WUHU216DAVISVP2,2013-10-05 17:21:00,
2013-10-05 13:26:00,75.0,68.5,30.06,SSW,203,4.0,6.0,80,0.00,,,0.01,WUHU216DAVISVP2,2013-10-05 17:26:00,
2013-10-05 13:31:00,74.6,68.8,30.06,SSE,160,2.0,6.0,82,0.00,,,0.01,WUHU216DAVISVP2,2013-10-05 17:31:00,
2013-10-05 13:36:00,74.0,68.9,30.06,SSW,209,0.0,8.0,84,0.00,,,0.01,WUHU216DAVISVP2,2013-10-05 17:36:00,
2013-10-05 13:41:00,73.4,69.0,30.06,SSW,209,0.0,8.0,86,0.02,,,0.03,WUHU216DAVISVP2,2013-10-05 17:41:00,
2013-10-05 13:46:00,72.8,69.0,30.05,SSW,211,0.0,4.0,88,0.03,,,0.04,WUHU216DAVISVP2,2013-10-05 17:46:00,
2013-10-05 13:51:00,72.4,69.0,30.05,SSW,198,0.0,2.0,89,0.04,,,0.05,WUHU216DAVISVP2,2013-10-05 17:51:00,
2013-10-05 13:56:00,72.0,68.9,30.05,SSW,198,0.0,2.0,90,0.04,,,0.05,WUHU216DAVISVP2,2013-10-05 17:56:00,
2013-10-05 14:01:00,71.7,68.9,30.04,SSW,198,2.0,2.0,91,0.05,,,0.06,WUHU216DAVISVP2,2013-10-05 18:01:00,
2013-10-05 14:06:00,71.6,69.1,30.04,South,175,0.0,4.0,92,0.05,,,0.06,WUHU216DAVISVP2,2013-10-05 18:06:00,
2013-10-05 14:11:00,71.4,68.9,30.04,SSW,205,0.0,4.0,92,0.05,,,0.06,WUHU216DAVISVP2,2013-10-05 18:11:00,
2013-10-05 14:16:00,71.3,69.1,30.04,South,185,0.0,4.0,93,0.05,,,0.06,WUHU216DAVISVP2,2013-10-05 18:16:00,
2013-10-05 14:21:00,71.2,69.0,30.03,SSE,163,2.0,4.0,93,0.06,,,0.07,WUHU216DAVISVP2,2013-10-05 18:21:00,
2013-10-05 14:26:00,71.1,68.9,30.03,South,173,4.0,6.0,93,0.06,,,0.07,WUHU216DAVISVP2,2013-10-05 18:26:00,
2013-10-05 14:31:00,70.9,68.7,30.02,South,181,6.0,10.0,93,0.07,,,0.08,WUHU216DAVISVP2,2013-10-05 18:31:00,
2013-10-05 14:36:00,70.7,68.9,30.02,SSE,160,0.0,10.0,94,0.07,,,0.08,WUHU216DAVISVP2,2013-10-05 18:36:00,
2013-10-05 14:41:00,70.6,68.8,30.02,South,184,0.0,10.0,94,0.05,,,0.08,WUHU216DAVISVP2,2013-10-05 18:41:00,
2013-10-05 14:46:00,70.5,68.7,30.01,South,184,2.0,10.0,94,0.05,,,0.09,WUHU216DAVISVP2,2013-10-05 18:46:00,
2013-10-05 14:51:00,70.4,68.6,30.01,South,184,6.0,8.0,94,0.04,,,0.09,WUHU216DAVISVP2,2013-10-05 18:51:00,
2013-10-05 14:56:00,70.3,68.8,30.02,SSE,160,0.0,14.0,95,0.04,,,0.09,WUHU216DAVISVP2,2013-10-05 18:56:00,
2013-10-05 15:01:00,70.3,68.8,30.02,SSE,167,2.0,14.0,95,0.03,,,0.09,WUHU216DAVISVP2,2013-10-05 19:01:00,
2013-10-05 15:06:00,70.2,68.7,30.02,West,260,0.0,10.0,95,0.04,,,0.10,WUHU216DAVISVP2,2013-10-05 19:06:00,
2013-10-05 15:11:00,70.2,68.7,30.02,SW,224,0.0,8.0,95,0.05,,,0.11,WUHU216DAVISVP2,2013-10-05 19:11:00,
2013-10-05 15:16:00,70.1,68.6,30.02,SE,130,4.0,10.0,95,0.05,,,0.11,WUHU216DAVISVP2,2013-10-05 19:16:00,
2013-10-05 15:21:00,70.1,68.6,30.02,West,279,2.0,10.0,95,0.06,,,0.13,WUHU216DAVISVP2,2013-10-05 19:21:00,
2013-10-05 15:26:00,70.0,68.5,30.02,SW,234,0.0,8.0,95,0.07,,,0.14,WUHU216DAVISVP2,2013-10-05 19:26:00,
2013-10-05 15:31:00,69.9,68.7,30.02,SSE,167,0.0,8.0,96,0.07,,,0.15,WUHU216DAVISVP2,2013-10-05 19:31:00,
2013-10-05 15:36:00,69.9,68.7,30.02,WSW,257,2.0,8.0,96,0.09,,,0.17,WUHU216DAVISVP2,2013-10-05 19:36:00,
2013-10-05 15:41:00,69.9,68.7,30.02,WSW,252,0.0,8.0,96,0.11,,,0.19,WUHU216DAVISVP2,2013-10-05 19:41:00,
2013-10-05 15:46:00,69.9,68.7,30.02,SSW,211,0.0,4.0,96,0.12,,,0.21,WUHU216DAVISVP2,2013-10-05 19:46:00,
2013-10-05 15:51:00,69.8,68.6,30.02,NNW,332,2.0,4.0,96,0.12,,,0.21,WUHU216DAVISVP2,2013-10-05 19:51:00,
2013-10-05 15:56:00,69.8,68.6,30.02,NW,309,0.0,4.0,96,0.14,,,0.23,WUHU216DAVISVP2,2013-10-05 19:56:00,
2013-10-05 16:01:00,69.8,68.6,30.01,South,184,0.0,4.0,96,0.17,,,0.26,WUHU216DAVISVP2,2013-10-05 20:01:00,
2013-10-05 16:06:00,69.7,68.5,30.00,SW,222,4.0,8.0,96,0.23,,,0.33,WUHU216DAVISVP2,2013-10-05 20:06:00,
2013-10-05 16:11:00,69.7,68.8,30.00,South,182,2.0,8.0,97,0.24,,,0.35,WUHU216DAVISVP2,2013-10-05 20:11:00,
2013-10-05 16:16:00,69.7,68.8,30.00,SSE,149,0.0,4.0,97,0.24,,,0.35,WUHU216DAVISVP2,2013-10-05 20:16:00,
2013-10-05 16:21:00,69.7,68.8,30.00,SSW,210,2.0,4.0,97,0.22,,,0.35,WUHU216DAVISVP2,2013-10-05 20:21:00,
2013-10-05 16:26:00,69.8,68.9,30.00,SSW,211,0.0,4.0,97,0.21,,,0.35,WUHU216DAVISVP2,2013-10-05 20:26:00,
2013-10-05 16:31:00,69.9,69.0,30.00,SW,218,2.0,10.0,97,0.20,,,0.35,WUHU216DAVISVP2,2013-10-05 20:31:00,
2013-10-05 16:36:00,70.0,69.1,30.00,South,179,0.0,10.0,97,0.18,,,0.35,WUHU216DAVISVP2,2013-10-05 20:36:00,
2013-10-05 16:41:00,70.2,69.3,29.99,SSW,195,8.0,10.0,97,0.16,,,0.35,WUHU216DAVISVP2,2013-10-05 20:41:00,
2013-10-05 16:46:00,70.4,69.5,29.98,South,190,2.0,10.0,97,0.14,,,0.35,WUHU216DAVISVP2,2013-10-05 20:46:00,
2013-10-05 16:51:00,70.6,69.7,29.98,SSW,199,2.0,10.0,97,0.14,,,0.35,WUHU216DAVISVP2,2013-10-05 20:51:00,
2013-10-05 16:56:00,70.7,69.8,29.98,ESE,109,0.0,16.0,97,0.12,,,0.35,WUHU216DAVISVP2,2013-10-05 20:56:00,
2013-10-05 17:01:00,70.9,70.0,29.98,SSW,197,4.0,16.0,97,0.09,,,0.35,WUHU216DAVISVP2,2013-10-05 21:01:00,
2013-10-05 17:06:00,71.0,69.8,29.98,SW,225,2.0,22.0,96,0.02,,,0.35,WUHU216DAVISVP2,2013-10-05 21:06:00,
2013-10-05 17:11:00,71.1,69.9,29.97,SSW,195,4.0,22.0,96,0.00,,,0.35,WUHU216DAVISVP2,2013-10-05 21:11:00,
2013-10-05 17:16:00,71.1,69.9,29.97,ESE,117,8.0,12.0,96,0.00,,,0.35,WUHU216DAVISVP2,2013-10-05 21:16:00,
2013-10-05 17:21:00,71.1,69.9,29.97,SW,224,6.0,18.0,96,0.00,,,0.35,WUHU216DAVISVP2,2013-10-05 21:21:00,
2013-10-05 17:26:00,71.1,69.6,29.97,SE,126,6.0,18.0,95,0.00,,,0.35,WUHU216DAVISVP2,2013-10-05 21:26:00,
2013-10-05 17:31:00,71.1,69.6,29.97,East,100,0.0,14.0,95,0.00,,,0.35,WUHU216DAVISVP2,2013-10-05 21:31:00,
2013-10-05 17:36:00,71.0,69.5,29.96,SE,132,0.0,16.0,95,0.00,,,0.35,WUHU216DAVISVP2,2013-10-05 21:36:00,
2013-10-05 17:41:00,70.9,69.4,29.97,SSW,201,12.0,16.0,95,0.00,,,0.35,WUHU216DAVISVP2,2013-10-05 21:41:00,
2013-10-05 17:46:00,70.9,69.4,29.97,South,178,6.0,16.0,95,0.00,,,0.35,WUHU216DAVISVP2,2013-10-05 21:46:00,
2013-10-05 17:51:00,70.8,69.3,29.97,SSE,164,2.0,16.0,95,0.00,,,0.35,WUHU216DAVISVP2,2013-10-05 21:51:00,
2013-10-05 17:56:00,70.7,69.2,29.97,SW,231,4.0,14.0,95,0.00,,,0.35,WUHU216DAVISVP2,2013-10-05 21:56:00,
2013-10-05 18:01:00,70.6,69.1,29.96,South,180,12.0,18.0,95,0.00,,,0.35,WUHU216DAVISVP2,2013-10-05 22:01:00,
2013-10-05 18:06:00,70.5,68.7,29.96,SW,217,2.0,18.0,94,0.00,,,0.35,WUHU216DAVISVP2,2013-10-05 22:06:00,
2013-10-05 18:11:00,70.5,69.0,29.96,South,183,4.0,18.0,95,0.00,,,0.35,WUHU216DAVISVP2,2013-10-05 22:11:00,
2013-10-05 18:16:00,70.4,68.9,29.96,SW,234,2.0,18.0,95,0.00,,,0.35,WUHU216DAVISVP2,2013-10-05 22:16:00,
2013-10-05 18:21:00,70.3,68.8,29.96,SSW,205,2.0,18.0,95,0.00,,,0.35,WUHU216DAVISVP2,2013-10-05 22:21:00,
2013-10-05 18:26:00,70.3,68.8,29.96,SSE,165,4.0,12.0,95,0.00,,,0.35,WUHU216DAVISVP2,2013-10-05 22:26:00,
2013-10-05 18:31:00,70.3,68.8,29.96,SE,140,2.0,14.0,95,0.00,,,0.35,WUHU216DAVISVP2,2013-10-05 22:31:00,
2013-10-05 18:36:00,70.2,68.7,29.96,SSE,161,0.0,14.0,95,0.00,,,0.35,WUHU216DAVISVP2,2013-10-05 22:36:00,
2013-10-05 18:41:00,70.1,68.6,29.96,SSE,160,10.0,14.0,95,0.00,,,0.35,WUHU216DAVISVP2,2013-10-05 22:41:00,
2013-10-05 18:46:00,70.1,68.6,29.96,South,178,0.0,14.0,95,0.00,,,0.35,WUHU216DAVISVP2,2013-10-05 22:46:00,
2013-10-05 18:51:00,70.1,68.6,29.96,SSE,162,4.0,12.0,95,0.00,,,0.35,WUHU216DAVISVP2,2013-10-05 22:51:00,
2013-10-05 18:56:00,70.1,68.9,29.97,SSE,155,0.0,14.0,96,0.00,,,0.35,WUHU216DAVISVP2,2013-10-05 22:56:00,
2013-10-05 19:01:00,70.1,68.9,29.96,SE,126,4.0,14.0,96,0.00,,,0.35,WUHU216DAVISVP2,2013-10-05 23:01:00,
2013-10-05 19:06:00,70.1,68.9,29.97,South,181,0.0,12.0,96,0.00,,,0.35,WUHU216DAVISVP2,2013-10-05 23:06:00,
2013-10-05 19:11:00,70.0,68.8,29.97,South,188,0.0,8.0,96,0.00,,,0.35,WUHU216DAVISVP2,2013-10-05 23:11:00,
2013-10-05 19:16:00,70.0,68.8,29.97,South,169,0.0,8.0,96,0.00,,,0.35,WUHU216DAVISVP2,2013-10-05 23:16:00,
2013-10-05 19:21:00,69.9,68.7,29.97,SSE,154,0.0,8.0,96,0.00,,,0.35,WUHU216DAVISVP2,2013-10-05 23:21:00,
2013-10-05 19:26:00,69.9,68.7,29.98,South,175,0.0,8.0,96,0.00,,,0.35,WUHU216DAVISVP2,2013-10-05 23:26:00,
2013-10-05 19:31:00,69.8,68.6,29.98,SW,225,0.0,8.0,96,0.00,,,0.35,WUHU216DAVISVP2,2013-10-05 23:31:00,
2013-10-05 19:36:00,69.8,68.6,29.98,SSW,196,0.0,8.0,96,0.00,,,0.35,WUHU216DAVISVP2,2013-10-05 23:36:00,
2013-10-05 19:41:00,69.7,68.5,29.99,South,173,0.0,8.0,96,0.00,,,0.35,WUHU216DAVISVP2,2013-10-05 23:41:00,
2013-10-05 19:46:00,69.7,68.5,29.99,SW,220,0.0,10.0,96,0.00,,,0.35,WUHU216DAVISVP2,2013-10-05 23:46:00,
2013-10-05 19:51:00,69.6,68.4,29.99,SW,218,0.0,10.0,96,0.00,,,0.35,WUHU216DAVISVP2,2013-10-05 23:51:00,
2013-10-05 19:56:00,69.5,68.3,30.00,SW,218,0.0,2.0,96,0.00,,,0.35,WUHU216DAVISVP2,2013-10-05 23:56:00,
2013-10-05 20:01:00,69.4,68.2,30.00,SW,218,0.0,2.0,96,0.00,,,0.35,WUHU216DAVISVP2,2013-10-06 00:01:00,
2013-10-05 20:06:00,69.4,68.2,29.99,SW,218,0.0,0.0,96,0.00,,,0.35,WUHU216DAVISVP2,2013-10-06 00:06:00,
2013-10-05 20:11:00,69.3,68.1,29.99,SW,218,0.0,0.0,96,0.00,,,0.35,WUHU216DAVISVP2,2013-10-06 00:11:00,
2013-10-05 20:16:00,69.2,68.0,29.99,SW,218,0.0,0.0,96,0.00,,,0.35,WUHU216DAVISVP2,2013-10-06 00:16:00,
2013-10-05 20:21:00,69.1,67.9,29.99,SW,218,0.0,2.0,96,0.00,,,0.35,WUHU216DAVISVP2,2013-10-06 00:21:00,
2013-10-05 20:26:00,69.0,67.8,29.99,SW,218,0.0,2.0,96,0.00,,,0.35,WUHU216DAVISVP2,2013-10-06 00:26:00,
2013-10-05 20:31:00,68.8,67.6,29.99,South,184,0.0,4.0,96,0.00,,,0.35,WUHU216DAVISVP2,2013-10-06 00:31:00,
2013-10-05 20:36:00,68.7,67.5,29.99,SSW,198,0.0,6.0,96,0.00,,,0.35,WUHU216DAVISVP2,2013-10-06 00:36:00,
2013-10-05 20:41:00,68.6,67.4,29.98,SSW,200,0.0,6.0,96,0.00,,,0.35,WUHU216DAVISVP2,2013-10-06 00:41:00,
2013-10-05 20:46:00,68.5,67.3,29.99,South,190,0.0,6.0,96,0.00,,,0.35,WUHU216DAVISVP2,2013-10-06 00:46:00,
2013-10-05 20:51:00,68.4,67.2,29.99,South,184,0.0,8.0,96,0.00,,,0.35,WUHU216DAVISVP2,2013-10-06 00:51:00,
2013-10-05 20:56:00,68.4,67.2,29.98,SSW,195,0.0,8.0,96,0.00,,,0.35,WUHU216DAVISVP2,2013-10-06 00:56:00,
2013-10-05 21:01:00,68.3,67.4,29.99,SSW,201,2.0,8.0,97,0.00,,,0.35,WUHU216DAVISVP2,2013-10-06 01:01:00,
2013-10-05 21:06:00,68.4,67.5,29.99,South,179,4.0,8.0,97,0.00,,,0.35,WUHU216DAVISVP2,2013-10-06 01:06:00,
2013-10-05 21:11:00,68.4,67.5,29.98,SSW,192,2.0,10.0,97,0.00,,,0.35,WUHU216DAVISVP2,2013-10-06 01:11:00,
2013-10-05 21:16:00,68.4,67.2,29.98,SE,139,2.0,10.0,96,0.00,,,0.35,WUHU216DAVISVP2,2013-10-06 01:16:00,
2013-10-05 21:21:00,68.4,67.2,29.98,South,180,2.0,10.0,96,0.00,,,0.35,WUHU216DAVISVP2,2013-10-06 01:21:00,
2013-10-05 21:26:00,68.4,67.2,29.98,WNW,286,6.0,8.0,96,0.00,,,0.35,WUHU216DAVISVP2,2013-10-06 01:26:00,
2013-10-05 21:31:00,68.5,67.3,29.98,South,190,0.0,14.0,96,0.00,,,0.35,WUHU216DAVISVP2,2013-10-06 01:31:00,
2013-10-05 21:36:00,68.5,67.3,29.98,South,179,4.0,14.0,96,0.00,,,0.35,WUHU216DAVISVP2,2013-10-06 01:36:00,
2013-10-05 21:41:00,68.5,67.3,29.99,SSE,164,2.0,10.0,96,0.00,,,0.35,WUHU216DAVISVP2,2013-10-06 01:41:00,
2013-10-05 21:46:00,68.5,67.3,29.98,South,185,4.0,12.0,96,0.00,,,0.35,WUHU216DAVISVP2,2013-10-06 01:46:00,
2013-10-05 21:51:00,68.5,67.3,29.99,SSE,150,0.0,12.0,96,0.00,,,0.35,WUHU216DAVISVP2,2013-10-06 01:51:00,
2013-10-05 21:56:00,68.5,67.3,29.99,SSW,194,0.0,12.0,96,0.00,,,0.35,WUHU216DAVISVP2,2013-10-06 01:56:00,
2013-10-05 22:01:00,68.5,67.3,29.99,SSW,198,0.0,14.0,96,0.00,,,0.35,WUHU216DAVISVP2,2013-10-06 02:01:00,
2013-10-05 22:06:00,68.5,67.0,29.99,South,176,2.0,14.0,95,0.00,,,0.35,WUHU216DAVISVP2,2013-10-06 02:06:00,
2013-10-05 22:11:00,68.5,67.0,29.99,South,190,2.0,14.0,95,0.00,,,0.35,WUHU216DAVISVP2,2013-10-06 02:11:00,
2013-10-05 22:16:00,68.6,67.1,29.99,SSE,156,0.0,14.0,95,0.00,,,0.35,WUHU216DAVISVP2,2013-10-06 02:16:00,
2013-10-05 22:21:00,68.6,67.1,29.99,South,188,2.0,10.0,95,0.00,,,0.35,WUHU216DAVISVP2,2013-10-06 02:21:00,
2013-10-05 22:26:00,68.6,67.1,29.99,East,87,0.0,8.0,95,0.00,,,0.35,WUHU216DAVISVP2,2013-10-06 02:26:00,
2013-10-05 22:31:00,68.6,67.1,29.99,South,171,0.0,8.0,95,0.00,,,0.35,WUHU216DAVISVP2,2013-10-06 02:31:00,
2013-10-05 22:36:00,68.6,67.1,29.99,South,178,0.0,12.0,95,0.00,,,0.35,WUHU216DAVISVP2,2013-10-06 02:36:00,
2013-10-05 22:41:00,68.6,67.1,29.99,SSW,192,0.0,12.0,95,0.00,,,0.35,WUHU216DAVISVP2,2013-10-06 02:41:00,
2013-10-05 22:46:00,68.6,67.1,29.99,SSW,198,0.0,8.0,95,0.00,,,0.35,WUHU216DAVISVP2,2013-10-06 02:46:00,
2013-10-05 22:51:00,68.5,67.0,29.98,South,184,4.0,8.0,95,0.00,,,0.35,WUHU216DAVISVP2,2013-10-06 02:51:00,
2013-10-05 22:56:00,68.5,67.0,29.98,SSW,196,4.0,8.0,95,0.00,,,0.35,WUHU216DAVISVP2,2013-10-06 02:56:00,
2013-10-05 23:01:00,68.4,66.9,29.98,SSW,194,2.0,10.0,95,0.00,,,0.35,WUHU216DAVISVP2,2013-10-06 03:01:00,
2013-10-05 23:06:00,68.4,66.9,29.98,SSW,205,0.0,10.0,95,0.00,,,0.35,WUHU216DAVISVP2,2013-10-06 03:06:00,
2013-10-05 23:11:00,68.3,66.8,29.98,SSW,194,4.0,12.0,95,0.00,,,0.35,WUHU216DAVISVP2,2013-10-06 03:11:00,
2013-10-05 23:16:00,68.3,66.8,29.98,West,259,0.0,12.0,95,0.00,,,0.35,WUHU216DAVISVP2,2013-10-06 03:16:00,
2013-10-05 23:21:00,68.3,66.8,29.97,SSW,192,0.0,10.0,95,0.00,,,0.35,WUHU216DAVISVP2,2013-10-06 03:21:00,
2013-10-05 23:26:00,68.2,66.7,29.97,SSW,192,4.0,10.0,95,0.00,,,0.35,WUHU216DAVISVP2,2013-10-06 03:26:00,
2013-10-05 23:31:00,68.2,66.7,29.97,SSW,196,0.0,10.0,95,0.00,,,0.35,WUHU216DAVISVP2,2013-10-06 03:31:00,
2013-10-05 23:36:00,68.2,66.7,29.97,South,182,0.0,12.0,95,0.00,,,0.35,WUHU216DAVISVP2,2013-10-06 03:36:00,
2013-10-05 23:41:00,68.2,66.7,29.96,South,190,0.0,12.0,95,0.00,,,0.35,WUHU216DAVISVP2,2013-10-06 03:41:00,
2013-10-05 23:46:00,68.1,66.6,29.97,South,190,0.0,8.0,95,0.00,,,0.35,WUHU216DAVISVP2,2013-10-06 03:46:00,
2013-10-05 23:51:00,68.1,66.6,29.97,South,181,2.0,8.0,95,0.00,,,0.35,WUHU216DAVISVP2,2013-10-06 03:51:00,
2013-10-05 23:56:00,68.2,66.7,29.96,SSW,192,0.0,12.0,95,0.00,,,0.35,WUHU216DAVISVP2,2013-10-06 03:56:00,